sensor_id;sensor_type;location;lat;lon;timestamp;pressure;altitude;pressure_sealevel;temperature;humidity
34103;BME280;20381;54.498;18.206;2022-07-05T00:00:09;99887.11;;;10.76;71.38
34103;BME280;20381;54.498;18.206;2022-07-05T00:02:38;99885.66;;;10.79;71.56
34103;BME280;20381;54.498;18.206;2022-07-05T00:05:06;99879.36;;;10.83;71.75
34103;BME280;20381;54.498;18.206;2022-07-05T00:07:32;99877.91;;;10.86;71.72
34103;BME280;20381;54.498;18.206;2022-07-05T00:09:59;99876.41;;;10.91;71.81
34103;BME280;20381;54.498;18.206;2022-07-05T00:12:29;99880.64;;;10.93;71.77
34103;BME280;20381;54.498;18.206;2022-07-05T00:14:59;99870.98;;;10.95;71.68
34103;BME280;20381;54.498;18.206;2022-07-05T00:17:26;99872.66;;;10.96;71.94
34103;BME280;20381;54.498;18.206;2022-07-05T00:19:52;99881.43;;;10.95;71.96
34103;BME280;20381;54.498;18.206;2022-07-05T00:22:19;99877.19;;;10.93;72.07
34103;BME280;20381;54.498;18.206;2022-07-05T00:24:46;99870.34;;;10.90;72.14
34103;BME280;20381;54.498;18.206;2022-07-05T00:27:13;99875.85;;;10.84;72.08
34103;BME280;20381;54.498;18.206;2022-07-05T00:29:39;99875.21;;;10.79;72.06
34103;BME280;20381;54.498;18.206;2022-07-05T00:32:06;99881.62;;;10.72;72.08
34103;BME280;20381;54.498;18.206;2022-07-05T00:34:33;99882.69;;;10.68;72.15
34103;BME280;20381;54.498;18.206;2022-07-05T00:36:59;99885.95;;;10.63;72.23
34103;BME280;20381;54.498;18.206;2022-07-05T00:39:26;99884.52;;;10.56;72.30
34103;BME280;20381;54.498;18.206;2022-07-05T00:41:53;99888.72;;;10.49;72.40
34103;BME280;20381;54.498;18.206;2022-07-05T00:44:55;99890.24;;;10.45;72.51
34103;BME280;20381;54.498;18.206;2022-07-05T00:47:08;99888.29;;;10.40;72.61
34103;BME280;20381;54.498;18.206;2022-07-05T00:49:32;99891.03;;;10.37;72.72
34103;BME280;20381;54.498;18.206;2022-07-05T00:52:00;99896.45;;;10.32;72.81
34103;BME280;20381;54.498;18.206;2022-07-05T00:54:27;99895.79;;;10.27;72.90
34103;BME280;20381;54.498;18.206;2022-07-05T00:56:55;99901.25;;;10.21;73.23
34103;BME280;20381;54.498;18.206;2022-07-05T00:59:22;99899.70;;;10.17;73.24
34103;BME280;20381;54.498;18.206;2022-07-05T01:01:49;99900.34;;;10.12;73.33
34103;BME280;20381;54.498;18.206;2022-07-05T01:04:16;99899.94;;;10.11;73.45
34103;BME280;20381;54.498;18.206;2022-07-05T01:06:46;99907.76;;;10.11;73.62
34103;BME280;20381;54.498;18.206;2022-07-05T01:09:15;99902.54;;;10.11;73.69
34103;BME280;20381;54.498;18.206;2022-07-05T01:11:44;99908.50;;;10.14;73.75
34103;BME280;20381;54.498;18.206;2022-07-05T01:14:13;99897.93;;;10.17;73.86
34103;BME280;20381;54.498;18.206;2022-07-05T01:16:45;99903.34;;;10.23;74.02
34103;BME280;20381;54.498;18.206;2022-07-05T01:19:13;99897.20;;;10.24;74.14
34103;BME280;20381;54.498;18.206;2022-07-05T01:21:42;99891.46;;;10.26;74.22
34103;BME280;20381;54.498;18.206;2022-07-05T01:24:12;99893.18;;;10.27;74.27
34103;BME280;20381;54.498;18.206;2022-07-05T01:26:41;99894.97;;;10.25;74.23
34103;BME280;20381;54.498;18.206;2022-07-05T01:29:10;99891.66;;;10.21;74.24
34103;BME280;20381;54.498;18.206;2022-07-05T01:31:37;99884.04;;;10.17;74.27
34103;BME280;20381;54.498;18.206;2022-07-05T01:34:07;99890.28;;;10.13;74.40
34103;BME280;20381;54.498;18.206;2022-07-05T01:36:35;99888.73;;;10.08;74.46
34103;BME280;20381;54.498;18.206;2022-07-05T01:39:03;99885.39;;;10.05;74.57
34103;BME280;20381;54.498;18.206;2022-07-05T01:41:31;99888.54;;;10.03;74.64
34103;BME280;20381;54.498;18.206;2022-07-05T01:43:59;99886.91;;;10.00;74.65
34103;BME280;20381;54.498;18.206;2022-07-05T01:46:29;99886.63;;;9.96;74.73
34103;BME280;20381;54.498;18.206;2022-07-05T01:49:05;99887.93;;;9.96;74.85
34103;BME280;20381;54.498;18.206;2022-07-05T01:51:44;99881.03;;;9.95;74.95
34103;BME280;20381;54.498;18.206;2022-07-05T01:54:21;99881.54;;;9.93;75.02
34103;BME280;20381;54.498;18.206;2022-07-05T01:56:48;99878.55;;;9.92;75.07
34103;BME280;20381;54.498;18.206;2022-07-05T01:59:15;99880.75;;;9.91;75.13
34103;BME280;20381;54.498;18.206;2022-07-05T02:01:42;99883.36;;;9.91;75.22
34103;BME280;20381;54.498;18.206;2022-07-05T02:04:10;99876.33;;;9.93;75.26
34103;BME280;20381;54.498;18.206;2022-07-05T02:06:37;99872.55;;;9.90;75.30
34103;BME280;20381;54.498;18.206;2022-07-05T02:09:05;99874.83;;;9.88;75.42
34103;BME280;20381;54.498;18.206;2022-07-05T02:11:34;99869.69;;;9.86;75.52
34103;BME280;20381;54.498;18.206;2022-07-05T02:14:01;99867.08;;;9.86;75.56
34103;BME280;20381;54.498;18.206;2022-07-05T02:16:28;99875.00;;;9.83;75.57
34103;BME280;20381;54.498;18.206;2022-07-05T02:18:55;99869.79;;;9.83;75.66
34103;BME280;20381;54.498;18.206;2022-07-05T02:21:22;99867.18;;;9.83;75.68
34103;BME280;20381;54.498;18.206;2022-07-05T02:23:49;99873.32;;;9.82;75.72
34103;BME280;20381;54.498;18.206;2022-07-05T02:26:17;99874.58;;;9.83;75.87
34103;BME280;20381;54.498;18.206;2022-07-05T02:28:45;99868.77;;;9.87;75.91
34103;BME280;20381;54.498;18.206;2022-07-05T02:31:11;99876.12;;;9.88;75.96
34103;BME280;20381;54.498;18.206;2022-07-05T02:33:38;99877.25;;;9.92;76.02
34103;BME280;20381;54.498;18.206;2022-07-05T02:36:07;99866.30;;;9.94;76.07
34103;BME280;20381;54.498;18.206;2022-07-05T02:38:35;99869.67;;;9.96;76.16
34103;BME280;20381;54.498;18.206;2022-07-05T02:41:06;99872.56;;;10.00;76.24
34103;BME280;20381;54.498;18.206;2022-07-05T02:43:34;99870.20;;;10.04;76.30
34103;BME280;20381;54.498;18.206;2022-07-05T02:46:02;99869.55;;;10.09;76.42
34103;BME280;20381;54.498;18.206;2022-07-05T02:48:29;99871.51;;;10.15;76.44
34103;BME280;20381;54.498;18.206;2022-07-05T02:50:59;99878.03;;;10.45;76.88
34103;BME280;20381;54.498;18.206;2022-07-05T02:53:26;99879.31;;;11.04;77.06
34103;BME280;20381;54.498;18.206;2022-07-05T02:55:52;99876.70;;;11.76;76.95
34103;BME280;20381;54.498;18.206;2022-07-05T02:58:20;99874.34;;;12.40;76.26
34103;BME280;20381;54.498;18.206;2022-07-05T03:00:47;99871.41;;;12.95;75.89
34103;BME280;20381;54.498;18.206;2022-07-05T03:03:15;99865.56;;;13.53;75.46
34103;BME280;20381;54.498;18.206;2022-07-05T03:05:43;99864.30;;;14.05;75.09
34103;BME280;20381;54.498;18.206;2022-07-05T03:08:10;99871.13;;;14.52;74.63
34103;BME280;20381;54.498;18.206;2022-07-05T03:10:37;99862.36;;;14.94;74.42
34103;BME280;20381;54.498;18.206;2022-07-05T03:13:05;99859.02;;;15.47;74.44
34103;BME280;20381;54.498;18.206;2022-07-05T03:15:32;99859.28;;;16.09;74.08
34103;BME280;20381;54.498;18.206;2022-07-05T03:17:59;99851.74;;;16.61;73.66
34103;BME280;20381;54.498;18.206;2022-07-05T03:20:26;99847.45;;;17.15;73.38
34103;BME280;20381;54.498;18.206;2022-07-05T03:22:52;99846.73;;;17.73;73.30
34103;BME280;20381;54.498;18.206;2022-07-05T03:25:19;99858.09;;;18.38;73.12
34103;BME280;20381;54.498;18.206;2022-07-05T03:27:46;99856.51;;;19.09;72.65
34103;BME280;20381;54.498;18.206;2022-07-05T03:30:13;99863.78;;;19.71;72.13
34103;BME280;20381;54.498;18.206;2022-07-05T03:32:40;99866.18;;;20.37;71.99
34103;BME280;20381;54.498;18.206;2022-07-05T03:35:07;99862.69;;;20.98;71.52
34103;BME280;20381;54.498;18.206;2022-07-05T03:37:34;99863.06;;;21.43;70.63
34103;BME280;20381;54.498;18.206;2022-07-05T03:40:02;99866.70;;;21.91;70.42
34103;BME280;20381;54.498;18.206;2022-07-05T03:42:29;99870.22;;;22.48;70.28
34103;BME280;20381;54.498;18.206;2022-07-05T03:44:56;99866.53;;;22.96;69.66
34103;BME280;20381;54.498;18.206;2022-07-05T03:47:22;99861.43;;;23.49;69.68
34103;BME280;20381;54.498;18.206;2022-07-05T03:49:49;99866.59;;;24.04;68.41
34103;BME280;20381;54.498;18.206;2022-07-05T03:52:15;99869.77;;;24.33;67.61
34103;BME280;20381;54.498;18.206;2022-07-05T03:54:41;99872.73;;;24.87;67.28
34103;BME280;20381;54.498;18.206;2022-07-05T03:57:11;99872.23;;;25.21;66.68
34103;BME280;20381;54.498;18.206;2022-07-05T03:59:39;99867.94;;;25.53;66.05
34103;BME280;20381;54.498;18.206;2022-07-05T04:02:06;99859.30;;;25.88;65.71
34103;BME280;20381;54.498;18.206;2022-07-05T04:04:33;99868.65;;;26.00;65.04
34103;BME280;20381;54.498;18.206;2022-07-05T04:07:00;99871.13;;;26.22;64.72
34103;BME280;20381;54.498;18.206;2022-07-05T04:09:27;99870.41;;;26.45;63.88
34103;BME280;20381;54.498;18.206;2022-07-05T04:11:54;99871.84;;;26.72;62.97
34103;BME280;20381;54.498;18.206;2022-07-05T04:14:21;99871.03;;;27.07;62.42
34103;BME280;20381;54.498;18.206;2022-07-05T04:16:48;99870.47;;;27.51;62.01
34103;BME280;20381;54.498;18.206;2022-07-05T04:19:14;99878.03;;;27.93;61.48
34103;BME280;20381;54.498;18.206;2022-07-05T04:21:42;99875.14;;;28.32;60.69
34103;BME280;20381;54.498;18.206;2022-07-05T04:24:09;99878.78;;;28.69;60.45
34103;BME280;20381;54.498;18.206;2022-07-05T04:26:36;99872.20;;;29.12;59.75
34103;BME280;20381;54.498;18.206;2022-07-05T04:29:04;99876.20;;;29.38;59.00
34103;BME280;20381;54.498;18.206;2022-07-05T04:31:31;99876.34;;;29.51;58.08
34103;BME280;20381;54.498;18.206;2022-07-05T04:33:58;99864.02;;;29.78;57.61
34103;BME280;20381;54.498;18.206;2022-07-05T04:36:25;99859.69;;;30.05;57.23
34103;BME280;20381;54.498;18.206;2022-07-05T04:38:51;99857.86;;;30.41;56.70
34103;BME280;20381;54.498;18.206;2022-07-05T04:41:18;99858.20;;;30.66;55.58
34103;BME280;20381;54.498;18.206;2022-07-05T04:43:45;99863.30;;;30.65;54.62
34103;BME280;20381;54.498;18.206;2022-07-05T04:48:47;99869.87;;;31.28;54.21
34103;BME280;20381;54.498;18.206;2022-07-05T04:51:14;99874.95;;;31.64;52.62
34103;BME280;20381;54.498;18.206;2022-07-05T04:53:42;99874.95;;;31.64;52.62
34103;BME280;20381;54.498;18.206;2022-07-05T04:56:09;99860.53;;;31.74;52.02
34103;BME280;20381;54.498;18.206;2022-07-05T04:58:35;99878.73;;;32.03;51.56
34103;BME280;20381;54.498;18.206;2022-07-05T05:01:02;99870.88;;;32.37;50.82
34103;BME280;20381;54.498;18.206;2022-07-05T05:03:29;99876.96;;;32.68;50.19
34103;BME280;20381;54.498;18.206;2022-07-05T05:05:56;99873.63;;;32.73;49.17
34103;BME280;20381;54.498;18.206;2022-07-05T05:08:24;99874.09;;;32.63;48.39
34103;BME280;20381;54.498;18.206;2022-07-05T05:10:50;99868.71;;;32.79;48.30
34103;BME280;20381;54.498;18.206;2022-07-05T05:13:17;99873.63;;;33.02;47.88
34103;BME280;20381;54.498;18.206;2022-07-05T05:15:44;99875.77;;;33.54;47.78
34103;BME280;20381;54.498;18.206;2022-07-05T05:18:11;99873.59;;;33.70;46.60
34103;BME280;20381;54.498;18.206;2022-07-05T05:20:38;99874.22;;;33.81;46.14
34103;BME280;20381;54.498;18.206;2022-07-05T05:23:05;99879.06;;;33.97;45.64
34103;BME280;20381;54.498;18.206;2022-07-05T05:25:31;99879.23;;;34.02;44.85
34103;BME280;20381;54.498;18.206;2022-07-05T05:28:00;99878.94;;;34.01;44.36
34103;BME280;20381;54.498;18.206;2022-07-05T05:30:28;99874.24;;;33.90;43.68
34103;BME280;20381;54.498;18.206;2022-07-05T05:32:55;99878.94;;;34.01;43.26
34103;BME280;20381;54.498;18.206;2022-07-05T05:35:21;99887.16;;;34.29;43.31
34103;BME280;20381;54.498;18.206;2022-07-05T05:37:51;99892.73;;;34.43;42.14
34103;BME280;20381;54.498;18.206;2022-07-05T05:40:20;99880.73;;;34.58;42.24
34103;BME280;20381;54.498;18.206;2022-07-05T05:42:50;99882.96;;;34.51;41.17
34103;BME280;20381;54.498;18.206;2022-07-05T05:45:19;99881.28;;;34.23;40.72
34103;BME280;20381;54.498;18.206;2022-07-05T05:47:55;99885.52;;;34.37;40.90
34103;BME280;20381;54.498;18.206;2022-07-05T05:50:30;99888.97;;;34.35;39.92
34103;BME280;20381;54.498;18.206;2022-07-05T05:53:00;99890.77;;;34.23;39.87
34103;BME280;20381;54.498;18.206;2022-07-05T05:55:29;99895.33;;;34.22;39.61
34103;BME280;20381;54.498;18.206;2022-07-05T05:58:15;99893.06;;;34.53;39.15
34103;BME280;20381;54.498;18.206;2022-07-05T06:00:45;99896.11;;;34.29;38.42
34103;BME280;20381;54.498;18.206;2022-07-05T06:03:14;99899.02;;;34.19;38.17
34103;BME280;20381;54.498;18.206;2022-07-05T06:05:42;99904.19;;;34.11;37.75
34103;BME280;20381;54.498;18.206;2022-07-05T06:08:08;99900.54;;;34.24;37.38
34103;BME280;20381;54.498;18.206;2022-07-05T06:10:36;99905.54;;;33.32;36.70
34103;BME280;20381;54.498;18.206;2022-07-05T06:13:05;99911.65;;;32.22;36.47
34103;BME280;20381;54.498;18.206;2022-07-05T06:15:33;99913.85;;;31.28;36.65
34103;BME280;20381;54.498;18.206;2022-07-05T06:18:01;99911.41;;;30.85;36.90
34103;BME280;20381;54.498;18.206;2022-07-05T06:20:33;99918.96;;;30.33;36.76
34103;BME280;20381;54.498;18.206;2022-07-05T06:22:58;99916.58;;;29.59;36.60
34103;BME280;20381;54.498;18.206;2022-07-05T06:25:26;99922.18;;;28.92;36.92
34103;BME280;20381;54.498;18.206;2022-07-05T06:28:00;99920.71;;;28.74;37.14
34103;BME280;20381;54.498;18.206;2022-07-05T06:30:29;99914.48;;;28.44;37.26
34103;BME280;20381;54.498;18.206;2022-07-05T06:32:57;99918.66;;;28.47;37.68
34103;BME280;20381;54.498;18.206;2022-07-05T06:35:24;99927.55;;;28.62;37.47
34103;BME280;20381;54.498;18.206;2022-07-05T06:37:54;99923.37;;;28.45;37.55
34103;BME280;20381;54.498;18.206;2022-07-05T06:40:29;99921.39;;;28.39;37.91
34103;BME280;20381;54.498;18.206;2022-07-05T06:43:01;99929.72;;;28.29;37.87
34103;BME280;20381;54.498;18.206;2022-07-05T06:45:29;99924.16;;;28.30;38.31
34103;BME280;20381;54.498;18.206;2022-07-05T06:47:58;99917.19;;;29.04;38.43
34103;BME280;20381;54.498;18.206;2022-07-05T06:50:27;99919.21;;;29.53;38.39
34103;BME280;20381;54.498;18.206;2022-07-05T06:52:55;99920.32;;;29.80;38.23
34103;BME280;20381;54.498;18.206;2022-07-05T06:55:23;99920.70;;;29.98;38.38
34103;BME280;20381;54.498;18.206;2022-07-05T06:58:03;99929.95;;;29.89;37.97
34103;BME280;20381;54.498;18.206;2022-07-05T07:00:31;99929.95;;;29.89;37.94
34103;BME280;20381;54.498;18.206;2022-07-05T07:02:58;99928.77;;;30.20;38.43
34103;BME280;20381;54.498;18.206;2022-07-05T07:07:25;99924.37;;;30.75;37.92
34103;BME280;20381;54.498;18.206;2022-07-05T07:10:10;99920.34;;;30.58;37.76
34103;BME280;20381;54.498;18.206;2022-07-05T07:12:36;99930.16;;;30.16;37.80
34103;BME280;20381;54.498;18.206;2022-07-05T07:15:04;99936.00;;;30.30;38.14
34103;BME280;20381;54.498;18.206;2022-07-05T07:17:31;99933.02;;;30.64;38.21
34103;BME280;20381;54.498;18.206;2022-07-05T07:19:58;99926.38;;;31.12;38.27
34103;BME280;20381;54.498;18.206;2022-07-05T07:22:25;99926.94;;;31.31;37.53
34103;BME280;20381;54.498;18.206;2022-07-05T07:24:53;99928.62;;;31.32;37.83
34103;BME280;20381;54.498;18.206;2022-07-05T07:27:19;99925.92;;;31.32;37.59
34103;BME280;20381;54.498;18.206;2022-07-05T07:29:46;99927.52;;;31.20;37.15
34103;BME280;20381;54.498;18.206;2022-07-05T07:32:13;99922.42;;;30.73;36.95
34103;BME280;20381;54.498;18.206;2022-07-05T07:34:40;99929.52;;;30.14;36.85
34103;BME280;20381;54.498;18.206;2022-07-05T07:37:06;99939.14;;;29.58;36.76
34103;BME280;20381;54.498;18.206;2022-07-05T07:39:34;99937.11;;;29.09;36.93
34103;BME280;20381;54.498;18.206;2022-07-05T07:42:01;99932.61;;;28.61;36.63
34103;BME280;20381;54.498;18.206;2022-07-05T07:44:28;99936.08;;;28.09;37.02
34103;BME280;20381;54.498;18.206;2022-07-05T07:46:55;99936.70;;;27.69;37.05
34103;BME280;20381;54.498;18.206;2022-07-05T07:49:22;99936.61;;;27.27;37.23
34103;BME280;20381;54.498;18.206;2022-07-05T07:51:49;99937.73;;;26.97;37.52
34103;BME280;20381;54.498;18.206;2022-07-05T07:54:17;99940.34;;;26.62;37.45
34103;BME280;20381;54.498;18.206;2022-07-05T07:56:44;99939.37;;;26.30;37.88
34103;BME280;20381;54.498;18.206;2022-07-05T07:59:10;99931.52;;;26.08;37.93
34103;BME280;20381;54.498;18.206;2022-07-05T08:01:37;99932.63;;;25.73;38.55
34103;BME280;20381;54.498;18.206;2022-07-05T08:04:04;99937.09;;;25.48;38.42
34103;BME280;20381;54.498;18.206;2022-07-05T08:06:31;99933.03;;;25.32;38.91
34103;BME280;20381;54.498;18.206;2022-07-05T08:08:57;99937.12;;;25.64;39.35
34103;BME280;20381;54.498;18.206;2022-07-05T08:11:24;99931.64;;;25.78;39.51
34103;BME280;20381;54.498;18.206;2022-07-05T08:13:50;99931.67;;;26.15;40.00
34103;BME280;20381;54.498;18.206;2022-07-05T08:16:17;99931.13;;;26.48;39.82
34103;BME280;20381;54.498;18.206;2022-07-05T08:18:43;99932.48;;;26.40;39.68
34103;BME280;20381;54.498;18.206;2022-07-05T08:21:28;99937.53;;;26.15;39.85
34103;BME280;20381;54.498;18.206;2022-07-05T08:23:59;99932.50;;;26.07;40.28
34103;BME280;20381;54.498;18.206;2022-07-05T08:26:28;99925.98;;;26.51;40.57
34103;BME280;20381;54.498;18.206;2022-07-05T08:28:57;99930.42;;;26.83;40.46
34103;BME280;20381;54.498;18.206;2022-07-05T08:31:25;99929.98;;;26.59;39.89
34103;BME280;20381;54.498;18.206;2022-07-05T08:33:53;99926.81;;;26.39;40.36
34103;BME280;20381;54.498;18.206;2022-07-05T08:36:19;99931.44;;;26.74;40.89
34103;BME280;20381;54.498;18.206;2022-07-05T08:38:46;99928.03;;;26.88;40.49
34103;BME280;20381;54.498;18.206;2022-07-05T08:41:17;99933.16;;;26.59;40.43
34103;BME280;20381;54.498;18.206;2022-07-05T08:43:47;99925.45;;;26.64;40.64
34103;BME280;20381;54.498;18.206;2022-07-05T08:46:16;99922.36;;;26.87;40.98
34103;BME280;20381;54.498;18.206;2022-07-05T08:48:46;99919.27;;;27.03;40.69
34103;BME280;20381;54.498;18.206;2022-07-05T08:51:20;99922.78;;;26.64;40.33
34103;BME280;20381;54.498;18.206;2022-07-05T08:53:44;99927.15;;;26.16;40.56
34103;BME280;20381;54.498;18.206;2022-07-05T08:56:12;99924.12;;;25.78;40.51
34103;BME280;20381;54.498;18.206;2022-07-05T08:58:40;99927.16;;;26.03;41.22
34103;BME280;20381;54.498;18.206;2022-07-05T09:01:08;99927.30;;;26.34;41.19
34103;BME280;20381;54.498;18.206;2022-07-05T09:03:39;99926.92;;;26.66;41.36
34103;BME280;20381;54.498;18.206;2022-07-05T09:06:15;99921.37;;;26.84;41.12
34103;BME280;20381;54.498;18.206;2022-07-05T09:08:43;99918.05;;;26.74;41.02
34103;BME280;20381;54.498;18.206;2022-07-05T09:11:13;99917.70;;;26.81;41.57
34103;BME280;20381;54.498;18.206;2022-07-05T09:13:42;99916.34;;;27.29;41.68
34103;BME280;20381;54.498;18.206;2022-07-05T09:16:10;99916.99;;;27.58;41.46
34103;BME280;20381;54.498;18.206;2022-07-05T09:18:48;99909.83;;;27.81;41.58
34103;BME280;20381;54.498;18.206;2022-07-05T09:21:25;99910.31;;;28.04;41.59
34103;BME280;20381;54.498;18.206;2022-07-05T09:23:58;99903.18;;;27.92;41.08
34103;BME280;20381;54.498;18.206;2022-07-05T09:26:48;99891.86;;;27.59;40.92
34103;BME280;20381;54.498;18.206;2022-07-05T09:29:19;99889.03;;;27.29;41.01
34103;BME280;20381;54.498;18.206;2022-07-05T09:31:48;99889.94;;;27.17;40.99
34103;BME280;20381;54.498;18.206;2022-07-05T09:34:21;99886.59;;;27.11;41.07
34103;BME280;20381;54.498;18.206;2022-07-05T09:37:06;99882.41;;;27.17;41.24
34103;BME280;20381;54.498;18.206;2022-07-05T09:39:35;99880.89;;;27.41;41.50
34103;BME280;20381;54.498;18.206;2022-07-05T09:42:10;99871.81;;;27.47;41.42
34103;BME280;20381;54.498;18.206;2022-07-05T09:44:51;99887.13;;;27.61;41.17
34103;BME280;20381;54.498;18.206;2022-07-05T09:47:21;99885.73;;;27.15;40.56
34103;BME280;20381;54.498;18.206;2022-07-05T09:49:54;99880.38;;;26.71;40.84
34103;BME280;20381;54.498;18.206;2022-07-05T09:52:31;99881.12;;;27.00;41.38
34103;BME280;20381;54.498;18.206;2022-07-05T09:55:07;99884.50;;;27.57;41.44
34103;BME280;20381;54.498;18.206;2022-07-05T09:57:45;99876.75;;;27.62;40.88
34103;BME280;20381;54.498;18.206;2022-07-05T10:00:18;99890.72;;;27.26;40.70
34103;BME280;20381;54.498;18.206;2022-07-05T10:02:53;99894.80;;;27.10;40.94
34103;BME280;20381;54.498;18.206;2022-07-05T10:05:24;99893.32;;;27.38;41.05
34103;BME280;20381;54.498;18.206;2022-07-05T10:07:57;99894.70;;;27.34;40.74
34103;BME280;20381;54.498;18.206;2022-07-05T10:10:27;99896.09;;;27.14;40.96
34103;BME280;20381;54.498;18.206;2022-07-05T10:12:57;99900.35;;;27.04;40.81
34103;BME280;20381;54.498;18.206;2022-07-05T10:15:32;99909.66;;;26.77;40.54
34103;BME280;20381;54.498;18.206;2022-07-05T10:18:03;99922.13;;;25.80;39.79
34103;BME280;20381;54.498;18.206;2022-07-05T10:20:40;99928.04;;;24.64;40.86
34103;BME280;20381;54.498;18.206;2022-07-05T10:23:14;99925.71;;;23.18;42.47
34103;BME280;20381;54.498;18.206;2022-07-05T10:25:44;99927.72;;;22.45;42.37
34103;BME280;20381;54.498;18.206;2022-07-05T10:28:19;99923.84;;;22.10;45.90
34103;BME280;20381;54.498;18.206;2022-07-05T10:30:48;99925.99;;;22.01;43.72
34103;BME280;20381;54.498;18.206;2022-07-05T10:33:19;99922.36;;;21.93;45.07
34103;BME280;20381;54.498;18.206;2022-07-05T10:35:52;99919.71;;;21.63;45.04
34103;BME280;20381;54.498;18.206;2022-07-05T10:38:20;99918.02;;;21.43;45.31
34103;BME280;20381;54.498;18.206;2022-07-05T10:40:50;99925.91;;;21.23;45.52
34103;BME280;20381;54.498;18.206;2022-07-05T10:43:21;99927.69;;;21.13;45.82
34103;BME280;20381;54.498;18.206;2022-07-05T10:45:50;99932.28;;;21.11;47.01
34103;BME280;20381;54.498;18.206;2022-07-05T10:48:21;99924.41;;;21.15;47.00
34103;BME280;20381;54.498;18.206;2022-07-05T10:56:13;99917.55;;;20.57;48.21
34103;BME280;20381;54.498;18.206;2022-07-05T10:58:45;99926.00;;;20.51;48.46
34103;BME280;20381;54.498;18.206;2022-07-05T11:06:44;99912.86;;;21.51;49.57
34103;BME280;20381;54.498;18.206;2022-07-05T11:09:20;99904.77;;;21.82;48.99
34103;BME280;20381;54.498;18.206;2022-07-05T11:14:30;99905.14;;;22.96;49.00
34103;BME280;20381;54.498;18.206;2022-07-05T11:17:14;99903.16;;;23.26;48.63
34103;BME280;20381;54.498;18.206;2022-07-05T11:20:09;99900.48;;;23.58;48.64
34103;BME280;20381;54.498;18.206;2022-07-05T11:23:01;99890.83;;;23.39;48.09
34103;BME280;20381;54.498;18.206;2022-07-05T11:25:42;99892.66;;;23.56;48.91
34103;BME280;20381;54.498;18.206;2022-07-05T11:28:17;99883.91;;;23.64;48.36
34103;BME280;20381;54.498;18.206;2022-07-05T11:30:55;99900.34;;;23.41;48.48
34103;BME280;20381;54.498;18.206;2022-07-05T11:33:30;99897.15;;;22.96;49.57
34103;BME280;20381;54.498;18.206;2022-07-05T11:35:58;99904.81;;;22.48;49.54
34103;BME280;20381;54.498;18.206;2022-07-05T11:38:27;99896.34;;;22.16;50.16
34103;BME280;20381;54.498;18.206;2022-07-05T11:41:13;99897.45;;;22.23;51.37
34103;BME280;20381;54.498;18.206;2022-07-05T11:43:41;99894.50;;;22.26;52.02
34103;BME280;20381;54.498;18.206;2022-07-05T11:46:10;99891.55;;;22.29;50.57
34103;BME280;20381;54.498;18.206;2022-07-05T11:48:38;99890.31;;;22.23;50.80
34103;BME280;20381;54.498;18.206;2022-07-05T11:51:13;99888.39;;;22.39;51.01
34103;BME280;20381;54.498;18.206;2022-07-05T11:53:41;99883.75;;;22.65;50.91
34103;BME280;20381;54.498;18.206;2022-07-05T11:56:09;99896.05;;;22.89;51.08
34103;BME280;20381;54.498;18.206;2022-07-05T11:58:37;99890.00;;;22.60;50.87
34103;BME280;20381;54.498;18.206;2022-07-05T12:01:05;99888.33;;;22.59;51.44
34103;BME280;20381;54.498;18.206;2022-07-05T12:03:33;99888.19;;;22.74;51.76
34103;BME280;20381;54.498;18.206;2022-07-05T12:06:13;99883.27;;;22.79;51.31
34103;BME280;20381;54.498;18.206;2022-07-05T12:08:41;99886.70;;;22.62;52.31
34103;BME280;20381;54.498;18.206;2022-07-05T12:11:12;99891.46;;;22.44;51.58
34103;BME280;20381;54.498;18.206;2022-07-05T12:13:58;99895.91;;;22.30;51.94
34103;BME280;20381;54.498;18.206;2022-07-05T12:16:25;99895.29;;;22.03;52.06
34103;BME280;20381;54.498;18.206;2022-07-05T12:18:56;99896.75;;;22.30;52.11
34103;BME280;20381;54.498;18.206;2022-07-05T12:21:25;99897.57;;;22.54;51.72
34103;BME280;20381;54.498;18.206;2022-07-05T12:23:52;99893.50;;;22.46;51.67
34103;BME280;20381;54.498;18.206;2022-07-05T12:26:20;99888.96;;;22.56;52.09
34103;BME280;20381;54.498;18.206;2022-07-05T12:28:50;99898.34;;;22.61;51.67
34103;BME280;20381;54.498;18.206;2022-07-05T12:31:24;99900.40;;;22.29;52.06
34103;BME280;20381;54.498;18.206;2022-07-05T12:33:52;99890.09;;;22.30;52.47
34103;BME280;20381;54.498;18.206;2022-07-05T12:36:22;99895.88;;;22.40;52.30
34103;BME280;20381;54.498;18.206;2022-07-05T12:38:59;99892.91;;;22.52;52.40
34103;BME280;20381;54.498;18.206;2022-07-05T12:41:26;99891.03;;;22.63;52.65
34103;BME280;20381;54.498;18.206;2022-07-05T12:43:54;99891.95;;;22.81;52.34
34103;BME280;20381;54.498;18.206;2022-07-05T12:47:02;99892.91;;;22.52;51.72
34103;BME280;20381;54.498;18.206;2022-07-05T12:49:04;99903.32;;;22.26;52.03
34103;BME280;20381;54.498;18.206;2022-07-05T12:51:31;99894.92;;;22.31;52.56
34103;BME280;20381;54.498;18.206;2022-07-05T12:54:03;99895.50;;;22.25;52.35
34103;BME280;20381;54.498;18.206;2022-07-05T12:56:53;99895.30;;;22.12;52.15
34103;BME280;20381;54.498;18.206;2022-07-05T12:59:39;99894.66;;;21.95;52.24
34103;BME280;20381;54.498;18.206;2022-07-05T13:02:09;99902.22;;;21.90;52.21
34103;BME280;20381;54.498;18.206;2022-07-05T13:04:37;99906.91;;;21.92;52.33
34103;BME280;20381;54.498;18.206;2022-07-05T13:07:07;99918.32;;;21.88;52.17
34103;BME280;20381;54.498;18.206;2022-07-05T13:09:35;99914.81;;;21.98;52.62
34103;BME280;20381;54.498;18.206;2022-07-05T13:12:18;99911.91;;;22.44;52.57
34103;BME280;20381;54.498;18.206;2022-07-05T13:14:50;99899.34;;;22.87;52.56
34103;BME280;20381;54.498;18.206;2022-07-05T13:17:19;99898.84;;;23.11;51.96
34103;BME280;20381;54.498;18.206;2022-07-05T13:19:49;99898.38;;;23.16;51.07